Time;durP1;ratioP1;P1;durP2;ratioP2;P2;SDS_P1;SDS_P2;PMS_P1;PMS_P2;Temp;Humidity;BMP_temperature;BMP_pressure;BME280_temperature;BME280_humidity;BME280_pressure;Samples;Min_cycle;Max_cycle;Signal;HPM_P1;HPM_P2
2022/03/17 00:00:39;;;;;;;;;71.75;57.00;13.40;49.80;;;;;;4996771;28;8862;-63
2022/03/17 00:03:05;;;;;;;;;72.50;56.50;13.30;49.40;;;;;;4996908;28;8862;-62
2022/03/17 00:05:31;;;;;;;;;75.75;59.25;12.80;51.20;;;;;;4996396;28;8820;-63
2022/03/17 00:07:58;;;;;;;;;78.25;61.75;12.80;51.90;;;;;;4996456;28;9450;-64
2022/03/17 00:10:23;;;;;;;;;74.50;59.25;13.20;50.90;;;;;;4996459;28;8792;-64
2022/03/17 00:12:49;;;;;;;;;74.50;59.25;12.90;51.00;;;;;;4996183;28;8772;-63
2022/03/17 00:15:16;;;;;;;;;76.25;61.25;12.40;53.00;;;;;;4996365;28;8804;-64
2022/03/17 00:17:42;;;;;;;;;68.25;55.75;12.70;52.50;;;;;;4996582;28;8887;-66
2022/03/17 00:20:10;;;;;;;;;73.25;59.50;13.00;51.60;;;;;;4996253;28;8784;-64
2022/03/17 00:22:37;;;;;;;;;73.50;58.25;13.30;50.60;;;;;;4996165;28;8805;-64
2022/03/17 00:25:05;;;;;;;;;72.50;58.75;13.60;50.70;;;;;;4996502;28;8844;-63
2022/03/17 00:27:31;;;;;;;;;75.50;60.75;13.90;48.80;;;;;;4995588;28;8803;-64
2022/03/17 00:29:57;;;;;;;;;74.50;59.00;13.90;48.60;;;;;;4996328;28;8768;-62
2022/03/17 00:32:23;;;;;;;;;76.00;58.75;13.70;49.00;;;;;;4995992;28;8760;-64
2022/03/17 00:37:34;;;;;;;;;77.50;62.00;13.40;50.40;;;;;;4995940;28;8863;-64
2022/03/17 00:40:00;;;;;;;;;72.75;58.00;13.50;49.80;;;;;;4996100;28;8870;-66
2022/03/17 00:42:27;;;;;;;;;74.50;58.00;13.30;49.60;;;;;;4995996;28;8954;-65
2022/03/17 00:44:54;;;;;;;;;73.50;58.75;13.20;50.20;;;;;;4995188;28;8927;-65
2022/03/17 00:47:20;;;;;;;;;74.75;58.50;13.10;50.30;;;;;;4995995;28;8773;-66
2022/03/17 00:49:47;;;;;;;;;65.50;53.50;12.80;51.30;;;;;;4995878;28;8895;-64
2022/03/17 00:52:14;;;;;;;;;72.25;57.25;13.10;51.00;;;;;;4995780;28;8792;-66
2022/03/17 00:54:41;;;;;;;;;72.50;57.00;13.10;50.90;;;;;;4994281;28;8848;-65
2022/03/17 00:57:12;;;;;;;;;79.25;62.00;13.30;50.20;;;;;;4995752;28;8761;-63
2022/03/17 00:59:40;;;;;;;;;78.25;62.25;13.30;50.00;;;;;;4995719;28;8846;-65
2022/03/17 01:02:07;;;;;;;;;79.00;60.50;13.60;49.40;;;;;;4995850;28;8812;-65
2022/03/17 01:04:33;;;;;;;;;67.75;55.75;13.70;48.90;;;;;;4995520;28;8874;-65
2022/03/17 01:06:59;;;;;;;;;71.75;57.50;13.80;48.70;;;;;;4995585;28;8756;-63
2022/03/17 01:09:28;;;;;;;;;78.50;60.50;13.50;48.80;;;;;;4995495;28;8814;-63
2022/03/17 01:11:54;;;;;;;;;73.25;57.25;12.90;51.20;;;;;;4995449;28;8894;-65
2022/03/17 01:14:20;;;;;;;;;88.00;80.00;12.10;53.00;;;;;;4995643;28;8773;-62
2022/03/17 01:16:46;;;;;;;;;80.00;62.50;12.20;54.50;;;;;;4995410;28;8895;-64
2022/03/17 01:19:12;;;;;;;;;72.25;57.50;12.30;54.30;;;;;;4995384;28;8850;-65
2022/03/17 01:21:38;;;;;;;;;68.25;54.75;12.40;53.00;;;;;;4995300;28;8765;-64
2022/03/17 01:24:04;;;;;;;;;72.00;58.25;12.10;54.50;;;;;;4995462;28;8847;-66
2022/03/17 01:26:30;;;;;;;;;74.25;58.25;12.60;52.90;;;;;;4995729;28;8780;-65
2022/03/17 01:28:56;;;;;;;;;76.25;59.25;12.90;52.10;;;;;;4995133;28;8772;-63
2022/03/17 01:31:24;;;;;;;;;81.50;63.25;13.30;50.80;;;;;;4995164;28;8801;-65
2022/03/17 01:33:50;;;;;;;;;82.25;67.25;13.50;50.00;;;;;;4995398;28;8784;-65
2022/03/17 01:36:16;;;;;;;;;77.50;61.00;13.40;50.10;;;;;;4995388;28;8799;-65
2022/03/17 01:38:42;;;;;;;;;80.75;65.25;13.30;50.60;;;;;;4995110;28;9387;-66
2022/03/17 01:41:07;;;;;;;;;76.75;61.75;13.50;50.20;;;;;;4995031;28;8784;-64
2022/03/17 01:43:33;;;;;;;;;81.25;63.00;13.10;51.20;;;;;;4995042;28;8800;-65
2022/03/17 01:45:59;;;;;;;;;78.75;63.50;13.30;50.60;;;;;;4995014;28;8811;-66
2022/03/17 01:48:25;;;;;;;;;72.25;57.00;13.50;49.90;;;;;;4994961;28;8874;-66
2022/03/17 01:50:52;;;;;;;;;70.75;56.25;13.90;49.00;;;;;;4994943;28;8838;-65
2022/03/17 01:53:18;;;;;;;;;72.75;57.50;13.50;49.40;;;;;;4994850;28;8840;-65
2022/03/17 01:55:43;;;;;;;;;65.75;55.25;13.70;49.30;;;;;;4994805;28;8816;-65
2022/03/17 01:58:10;;;;;;;;;71.00;56.75;13.70;49.00;;;;;;4998916;28;8790;-64
2022/03/17 02:00:37;;;;;;;;;68.75;56.75;13.70;49.00;;;;;;4999322;28;9387;-65
2022/03/17 02:03:03;;;;;;;;;71.50;57.75;13.40;49.30;;;;;;4998878;28;8839;-63
2022/03/17 02:05:29;;;;;;;;;72.75;58.50;13.30;49.80;;;;;;4998842;28;8808;-64
2022/03/17 02:07:55;;;;;;;;;63.50;52.25;13.20;49.80;;;;;;4998846;28;8796;-65
2022/03/17 02:10:22;;;;;;;;;67.00;54.75;12.80;51.20;;;;;;4999067;28;8788;-65
2022/03/17 02:15:33;;;;;;;;;66.25;51.75;12.90;51.20;;;;;;4998832;28;9300;-64
2022/03/17 02:18:01;;;;;;;;;65.00;53.50;12.60;52.00;;;;;;4998940;28;8811;-66
2022/03/17 02:20:28;;;;;;;;;69.50;56.00;13.00;51.20;;;;;;4998840;28;8784;-67
2022/03/17 02:25:33;;;;;;;;;73.00;58.25;13.20;50.20;;;;;;4998809;28;8772;-64
2022/03/17 02:25:42;;;;;;;;;66.50;54.75;13.00;50.40;;;;;;4998496;28;8954;-64
2022/03/17 02:28:08;;;;;;;;;69.00;54.75;13.30;50.00;;;;;;4998373;28;8776;-65
2022/03/17 02:30:37;;;;;;;;;71.00;55.25;13.50;49.60;;;;;;4998433;28;8787;-66
2022/03/17 02:33:10;;;;;;;;;71.00;57.00;13.70;49.00;;;;;;4998412;28;8783;-63
2022/03/17 02:35:39;;;;;;;;;72.00;56.75;13.40;49.50;;;;;;4997403;28;8776;-64
2022/03/17 02:38:06;;;;;;;;;67.50;54.25;13.50;49.20;;;;;;4998325;28;8788;-67
2022/03/17 02:40:35;;;;;;;;;68.00;53.25;13.30;49.50;;;;;;4998511;28;8776;-66
2022/03/17 02:43:01;;;;;;;;;69.50;57.00;13.20;50.00;;;;;;4998283;28;8768;-65
2022/03/17 02:45:27;;;;;;;;;70.50;56.25;13.30;50.20;;;;;;4998337;28;9458;-64
2022/03/17 02:47:53;;;;;;;;;76.75;59.25;13.40;49.70;;;;;;4998388;28;8815;-65
2022/03/17 02:50:19;;;;;;;;;70.00;55.25;13.00;50.40;;;;;;4998370;28;8772;-65
2022/03/17 02:52:45;;;;;;;;;69.50;55.00;13.00;50.40;;;;;;4998301;28;8768;-63
2022/03/17 02:55:11;;;;;;;;;69.00;54.25;12.80;51.60;;;;;;4997880;28;8962;-64
2022/03/17 02:57:39;;;;;;;;;68.25;54.75;13.10;50.80;;;;;;4997945;28;8768;-66
2022/03/17 03:00:07;;;;;;;;;72.25;57.50;13.40;49.90;;;;;;4998176;28;8862;-65
2022/03/17 03:02:33;;;;;;;;;68.50;56.25;13.50;49.60;;;;;;4997893;28;8854;-65
2022/03/17 03:04:59;;;;;;;;;70.75;57.00;13.30;49.70;;;;;;4997762;28;8812;-64
2022/03/17 03:07:25;;;;;;;;;69.25;53.75;13.40;50.00;;;;;;4997806;28;8792;-62
2022/03/17 03:09:51;;;;;;;;;66.75;53.25;13.30;49.80;;;;;;4997104;28;8903;-65
2022/03/17 03:12:17;;;;;;;;;69.50;54.25;13.40;49.70;;;;;;4997969;28;9476;-65
2022/03/17 03:14:43;;;;;;;;;70.00;56.75;13.40;49.10;;;;;;4997931;28;8772;-64
2022/03/17 03:17:09;;;;;;;;;66.00;54.25;13.40;49.70;;;;;;4997600;28;8887;-64
2022/03/17 03:19:34;;;;;;;;;62.50;52.00;13.20;50.00;;;;;;4997537;28;8768;-63
2022/03/17 03:22:01;;;;;;;;;63.75;52.25;13.20;50.40;;;;;;4997488;28;8795;-64
2022/03/17 03:24:27;;;;;;;;;73.00;54.50;12.90;50.60;;;;;;4997392;28;8850;-63
2022/03/17 03:26:52;;;;;;;;;67.00;54.25;12.80;51.50;;;;;;4997669;28;8781;-64
2022/03/17 03:29:28;;;;;;;;;68.25;54.75;12.60;51.90;;;;;;4997390;28;8789;-65
2022/03/17 03:31:56;;;;;;;;;67.25;53.25;13.00;51.40;;;;;;4997641;28;8781;-65
2022/03/17 03:34:23;;;;;;;;;70.50;53.75;13.20;50.60;;;;;;4997428;28;8819;-66
2022/03/17 03:39:34;;;;;;;;;65.50;53.25;13.60;49.50;;;;;;4997282;28;9399;-64
2022/03/17 03:42:01;;;;;;;;;68.75;56.00;13.60;49.10;;;;;;4997175;28;8777;-64
2022/03/17 03:44:27;;;;;;;;;69.25;56.50;13.70;48.90;;;;;;4997123;28;8813;-63
2022/03/17 03:46:53;;;;;;;;;64.50;51.00;13.80;48.70;;;;;;4997316;28;8777;-63
2022/03/17 03:49:19;;;;;;;;;66.75;54.50;13.80;48.60;;;;;;4997311;28;8781;-66
2022/03/17 03:51:45;;;;;;;;;67.00;54.00;13.80;48.50;;;;;;4997211;28;8839;-65
2022/03/17 03:54:16;;;;;;;;;69.75;54.25;13.80;48.50;;;;;;4996940;28;9661;-65
2022/03/17 03:56:48;;;;;;;;;68.25;55.50;13.70;48.90;;;;;;4997195;28;8807;-65
2022/03/17 03:59:21;;;;;;;;;70.75;56.25;13.60;48.70;;;;;;4997172;28;9454;-64
2022/03/17 04:01:49;;;;;;;;;70.00;55.75;13.30;49.60;;;;;;4996829;28;8780;-66
2022/03/17 04:04:18;;;;;;;;;70.25;57.00;12.40;51.70;;;;;;4996605;28;8835;-65
2022/03/17 04:06:45;;;;;;;;;69.50;54.75;12.40;52.90;;;;;;4997023;28;8822;-64
2022/03/17 04:09:12;;;;;;;;;69.75;54.50;12.60;52.50;;;;;;4996619;28;8826;-64
2022/03/17 04:11:39;;;;;;;;;64.50;52.50;13.00;51.50;;;;;;4996629;28;8780;-66
2022/03/17 04:14:06;;;;;;;;;72.50;57.00;13.00;51.20;;;;;;4996834;28;8789;-66
2022/03/17 04:16:32;;;;;;;;;69.50;55.25;13.10;51.20;;;;;;4996807;28;8784;-64
2022/03/17 04:18:58;;;;;;;;;68.50;55.50;13.20;50.80;;;;;;4996663;28;9446;-65
2022/03/17 04:21:24;;;;;;;;;70.75;56.00;13.40;50.00;;;;;;4995407;28;8772;-63
2022/03/17 04:23:50;;;;;;;;;70.25;56.50;13.30;50.00;;;;;;4996317;28;8769;-63
2022/03/17 04:26:16;;;;;;;;;73.00;58.00;13.40;50.10;;;;;;4996284;28;8788;-64
2022/03/17 04:28:42;;;;;;;;;67.25;52.50;13.50;49.60;;;;;;4996463;28;8793;-64
2022/03/17 04:31:08;;;;;;;;;74.25;58.00;13.40;49.60;;;;;;4996201;28;8760;-63
2022/03/17 04:33:34;;;;;;;;;74.25;60.00;13.10;50.60;;;;;;4996227;28;8815;-63
2022/03/17 04:36:02;;;;;;;;;75.75;60.50;13.20;50.30;;;;;;4996463;28;8808;-65
2022/03/17 04:38:28;;;;;;;;;73.25;58.25;13.00;51.00;;;;;;4995612;28;8793;-64
2022/03/17 04:40:54;;;;;;;;;75.75;58.00;13.30;50.30;;;;;;4996171;28;8777;-64
2022/03/17 04:43:20;;;;;;;;;73.25;59.00;13.50;49.80;;;;;;4995925;28;8791;-65
2022/03/17 04:45:47;;;;;;;;;76.50;59.25;13.60;49.40;;;;;;4996138;28;8838;-62
2022/03/17 04:48:13;;;;;;;;;82.25;66.50;12.60;51.80;;;;;;4996156;28;8879;-64
2022/03/17 04:50:40;;;;;;;;;82.00;61.75;12.60;51.90;;;;;;4996109;28;8761;-63
2022/03/17 04:55:51;;;;;;;;;81.25;64.25;12.50;53.20;;;;;;4995673;28;9462;-63
2022/03/17 05:10:54;;;;;;;;;94.75;88.75;12.90;50.70;;;;;;5129183;27;13490;-64
2022/03/17 05:13:22;;;;;;;;;99.75;87.25;13.50;50.10;;;;;;5132565;27;9388;-64
2022/03/17 05:15:49;;;;;;;;;87.25;79.25;13.30;50.00;;;;;;5132916;27;9494;-63
2022/03/17 05:18:15;;;;;;;;;73.25;58.75;13.10;50.70;;;;;;5132755;27;8822;-64
2022/03/17 05:20:42;;;;;;;;;78.25;61.50;13.00;51.10;;;;;;5132524;27;8755;-63
2022/03/17 05:23:10;;;;;;;;;77.00;62.75;12.90;50.90;;;;;;5132489;27;8747;-64
2022/03/17 05:25:38;;;;;;;;;70.75;56.50;13.00;51.00;;;;;;5132703;27;8754;-64
2022/03/17 05:28:05;;;;;;;;;78.75;61.00;13.30;50.30;;;;;;5132661;27;8793;-65
2022/03/17 05:30:31;;;;;;;;;75.50;59.50;13.50;49.80;;;;;;5132333;27;8770;-65
2022/03/17 05:32:58;;;;;;;;;77.25;60.25;13.60;49.20;;;;;;5132602;27;8786;-64
2022/03/17 05:35:24;;;;;;;;;76.00;63.00;13.70;49.00;;;;;;5132429;27;9420;-66
2022/03/17 05:37:51;;;;;;;;;81.00;65.00;13.70;48.90;;;;;;5132247;27;8908;-65
2022/03/17 05:40:18;;;;;;;;;83.50;64.25;13.40;49.70;;;;;;5119387;27;8849;-65
2022/03/17 05:42:47;;;;;;;;;78.00;62.50;13.30;49.80;;;;;;5120816;28;8778;-65
2022/03/17 05:45:15;;;;;;;;;79.25;63.75;13.50;49.50;;;;;;5116621;27;9510;-65
2022/03/17 05:47:47;;;;;;;;;84.75;69.50;13.50;49.60;;;;;;5125746;27;8794;-65
2022/03/17 05:50:15;;;;;;;;;88.50;73.00;13.60;49.30;;;;;;5111694;27;8812;-65
2022/03/17 05:52:44;;;;;;;;;83.25;66.50;13.70;49.10;;;;;;5111254;28;8846;-65
2022/03/17 05:55:12;;;;;;;;;74.25;59.75;13.80;48.90;;;;;;5113771;27;8870;-64
2022/03/17 05:57:39;;;;;;;;;79.25;60.50;13.90;48.30;;;;;;5120450;28;8812;-65
2022/03/17 06:00:08;;;;;;;;;79.00;62.25;13.90;48.40;;;;;;5113467;28;8829;-63
2022/03/17 06:02:34;;;;;;;;;69.50;56.75;13.90;48.20;;;;;;5111187;28;8885;-64
2022/03/17 06:05:00;;;;;;;;;78.25;65.50;13.40;48.90;;;;;;5125871;27;8809;-65
2022/03/17 06:07:38;;;;;;;;;79.25;60.75;13.30;49.00;;;;;;5112477;28;8894;-64
2022/03/17 06:10:18;;;;;;;;;84.25;68.50;13.60;49.40;;;;;;5141196;27;8893;-65
2022/03/17 06:12:44;;;;;;;;;75.50;59.75;13.70;49.20;;;;;;5117585;28;8772;-65
2022/03/17 06:15:11;;;;;;;;;80.50;62.00;13.80;48.60;;;;;;5117642;28;8768;-65
2022/03/17 06:17:41;;;;;;;;;77.00;60.00;13.80;48.80;;;;;;5117968;28;9428;-65
2022/03/17 06:20:13;;;;;;;;;81.50;63.75;13.90;48.30;;;;;;5117684;28;8816;-65
2022/03/17 06:22:40;;;;;;;;;79.50;62.00;13.90;48.30;;;;;;5117514;28;9334;-64
2022/03/17 06:25:07;;;;;;;;;80.50;61.50;14.00;47.70;;;;;;5117796;28;8756;-65
2022/03/17 06:27:36;;;;;;;;;87.50;71.25;13.90;48.00;;;;;;5117413;28;8780;-65
2022/03/17 06:30:07;;;;;;;;;99.50;92.00;13.80;47.70;;;;;;5117655;28;8780;-65
2022/03/17 06:32:39;;;;;;;;;94.00;85.50;13.80;47.90;;;;;;5117486;28;8956;-65
2022/03/17 06:35:15;;;;;;;;;94.00;86.00;13.80;48.30;;;;;;5117205;28;8798;-65
2022/03/17 06:37:41;;;;;;;;;93.50;87.00;13.90;48.00;;;;;;5117479;28;8772;-65
2022/03/17 06:40:08;;;;;;;;;99.00;87.25;13.90;47.90;;;;;;5117565;28;9619;-65
2022/03/17 06:42:34;;;;;;;;;101.00;91.25;13.70;48.00;;;;;;5117307;28;8793;-65
2022/03/17 06:45:01;;;;;;;;;90.75;83.00;12.90;51.50;;;;;;5117054;28;8768;-65
2022/03/17 06:47:27;;;;;;;;;97.00;89.25;13.00;51.70;;;;;;5117312;28;9508;-66
2022/03/17 06:49:53;;;;;;;;;101.50;91.50;12.40;53.10;;;;;;5117014;28;8786;-65
2022/03/17 06:52:19;;;;;;;;;92.25;82.75;12.20;54.00;;;;;;5116960;28;8915;-63
2022/03/17 06:54:45;;;;;;;;;91.00;80.00;12.20;54.70;;;;;;5117147;28;8808;-66
2022/03/17 06:57:15;;;;;;;;;103.75;90.75;12.30;54.20;;;;;;5116833;28;8815;-65
2022/03/17 06:59:41;;;;;;;;;89.25;84.50;12.30;54.30;;;;;;5116982;28;8804;-64
2022/03/17 07:02:06;;;;;;;;;97.75;91.25;12.50;54.30;;;;;;5116771;28;8764;-66
2022/03/17 07:04:32;;;;;;;;;99.50;94.75;12.80;52.50;;;;;;5116807;28;8866;-65
2022/03/17 07:06:59;;;;;;;;;113.50;104.75;13.10;51.70;;;;;;5116663;28;8780;-65
2022/03/17 07:09:25;;;;;;;;;105.50;98.75;12.90;51.80;;;;;;5116540;28;8863;-65
2022/03/17 07:11:50;;;;;;;;;116.50;106.00;12.30;54.20;;;;;;5116541;28;8783;-65
2022/03/17 07:14:16;;;;;;;;;110.00;103.25;12.30;54.10;;;;;;5116982;28;8870;-65
2022/03/17 07:16:43;;;;;;;;;123.00;111.75;12.30;54.50;;;;;;5098300;28;8780;-65
2022/03/17 07:19:09;;;;;;;;;132.00;122.00;12.50;53.80;;;;;;5116337;28;8827;-65
2022/03/17 07:21:35;;;;;;;;;174.75;159.75;12.60;54.00;;;;;;5115791;28;8882;-65
2022/03/17 07:24:01;;;;;;;;;122.75;112.25;12.20;55.60;;;;;;5115968;28;8800;-65
2022/03/17 07:26:27;;;;;;;;;117.75;108.75;11.90;55.70;;;;;;5116238;28;9424;-66
2022/03/17 07:28:54;;;;;;;;;130.75;121.00;11.90;56.80;;;;;;5116498;28;8760;-65
2022/03/17 07:31:21;;;;;;;;;116.25;105.75;12.20;55.90;;;;;;5115973;28;8790;-65
2022/03/17 07:33:49;;;;;;;;;108.50;99.75;12.10;56.10;;;;;;5116372;28;8768;-65
2022/03/17 07:36:15;;;;;;;;;102.00;101.00;12.40;55.80;;;;;;5116064;28;8798;-66
2022/03/17 07:38:41;;;;;;;;;97.00;86.00;12.50;54.90;;;;;;5116340;28;8862;-65
2022/03/17 07:41:08;;;;;;;;;93.50;84.50;12.80;54.30;;;;;;5115997;28;8768;-65
2022/03/17 07:43:34;;;;;;;;;99.25;92.75;12.40;55.50;;;;;;5115839;28;8776;-65
2022/03/17 07:45:59;;;;;;;;;100.75;95.50;12.50;55.20;;;;;;5116042;28;8780;-65
2022/03/17 07:48:25;;;;;;;;;98.25;86.50;12.30;56.00;;;;;;5115495;28;8760;-65
2022/03/17 07:50:51;;;;;;;;;78.50;63.50;12.80;53.70;;;;;;5115690;28;8784;-65
2022/03/17 07:53:17;;;;;;;;;73.00;57.25;12.60;53.70;;;;;;5115787;28;9421;-66
2022/03/17 07:55:43;;;;;;;;;79.25;62.75;12.40;54.90;;;;;;5115823;28;8760;-65
2022/03/17 07:58:10;;;;;;;;;87.50;79.50;12.20;54.80;;;;;;5115528;28;8760;-64
2022/03/17 08:00:37;;;;;;;;;92.75;87.75;12.10;55.80;;;;;;5115767;28;8864;-65
2022/03/17 08:03:04;;;;;;;;;89.25;78.00;12.30;55.40;;;;;;5115547;28;8799;-65
2022/03/17 08:05:30;;;;;;;;;90.25;84.25;12.00;56.10;;;;;;5115499;28;8768;-65
2022/03/17 08:07:56;;;;;;;;;76.50;63.75;12.30;55.30;;;;;;5115725;28;8860;-65
2022/03/17 08:10:22;;;;;;;;;74.00;58.25;11.90;56.60;;;;;;5115329;28;8896;-63
2022/03/17 08:12:48;;;;;;;;;80.25;63.50;12.40;55.20;;;;;;5115431;28;8792;-66
2022/03/17 08:15:14;;;;;;;;;74.75;59.25;12.60;54.60;;;;;;5115315;28;8792;-66
2022/03/17 08:17:40;;;;;;;;;80.75;66.75;12.10;56.20;;;;;;5115578;28;8786;-67
2022/03/17 08:20:06;;;;;;;;;108.00;100.25;12.10;56.20;;;;;;5115341;28;9445;-66
2022/03/17 08:22:34;;;;;;;;;81.75;67.00;11.80;57.40;;;;;;5115348;28;8760;-66
2022/03/17 08:25:00;;;;;;;;;74.50;60.25;11.90;57.50;;;;;;5114995;28;9433;-64
2022/03/17 08:27:26;;;;;;;;;79.75;63.75;11.90;58.60;;;;;;5115033;28;8790;-64
2022/03/17 08:29:51;;;;;;;;;84.25;66.00;12.10;57.10;;;;;;5114992;28;8756;-64
2022/03/17 08:32:17;;;;;;;;;81.75;65.25;12.70;54.70;;;;;;5114860;28;8792;-64
2022/03/17 08:34:43;;;;;;;;;70.75;54.00;12.60;54.50;;;;;;5115038;28;8789;-65
2022/03/17 08:37:09;;;;;;;;;71.50;56.75;12.20;55.80;;;;;;5115223;28;9630;-64
2022/03/17 08:39:35;;;;;;;;;72.50;58.25;12.10;57.60;;;;;;5115121;28;8894;-66
2022/03/17 08:42:01;;;;;;;;;84.00;69.75;12.10;57.30;;;;;;5114756;28;9425;-68
2022/03/17 08:44:27;;;;;;;;;82.25;62.50;12.20;57.70;;;;;;5115078;28;8760;-67
2022/03/17 08:49:37;;;;;;;;;72.75;55.50;12.20;58.00;;;;;;5114807;28;8760;-71
2022/03/17 08:52:03;;;;;;;;;84.75;67.50;12.10;60.00;;;;;;5114760;28;8775;-68
2022/03/17 08:54:33;;;;;;;;;85.00;73.50;11.90;60.00;;;;;;5114715;28;8784;-69
2022/03/17 08:56:59;;;;;;;;;72.75;58.75;12.00;60.40;;;;;;5114869;28;8799;-66
2022/03/17 08:59:34;;;;;;;;;83.75;67.00;12.60;57.80;;;;;;5118305;27;8833;-73
2022/03/17 09:02:03;;;;;;;;;80.50;62.25;12.70;56.90;;;;;;5133872;27;8774;-71
2022/03/17 09:04:29;;;;;;;;;78.75;61.50;12.50;57.60;;;;;;5135330;27;8781;-65
2022/03/17 09:07:02;;;;;;;;;74.75;61.75;12.60;56.70;;;;;;5135453;27;9434;-70
2022/03/17 09:09:34;;;;;;;;;82.75;69.25;12.80;55.30;;;;;;5135131;27;8825;-70
2022/03/17 09:12:05;;;;;;;;;84.00;69.75;13.20;53.90;;;;;;5135202;27;8896;-70
2022/03/17 09:14:40;;;;;;;;;81.00;62.75;12.90;54.60;;;;;;5135420;27;8773;-70
2022/03/17 09:17:06;;;;;;;;;84.25;68.50;13.10;55.10;;;;;;5135286;27;8773;-69
2022/03/17 09:19:32;;;;;;;;;82.00;62.50;13.30;54.10;;;;;;5135095;27;8852;-70
2022/03/17 09:21:59;;;;;;;;;94.75;86.25;12.50;56.10;;;;;;5135453;27;8762;-69
2022/03/17 09:24:26;;;;;;;;;74.00;56.00;12.50;57.60;;;;;;5135037;27;8788;-69
2022/03/17 09:26:52;;;;;;;;;78.50;61.50;12.30;58.40;;;;;;5135155;27;8766;-72
2022/03/17 09:29:18;;;;;;;;;81.25;63.75;12.50;57.90;;;;;;5134962;27;8829;-71
2022/03/17 09:31:44;;;;;;;;;82.25;63.50;12.50;58.00;;;;;;5135025;27;8860;-70
2022/03/17 09:34:10;;;;;;;;;82.25;69.25;12.70;57.00;;;;;;5134935;27;8766;-71
2022/03/17 09:36:36;;;;;;;;;80.75;63.25;12.70;56.90;;;;;;5134914;27;8781;-71
2022/03/17 09:41:46;;;;;;;;;79.75;65.25;12.20;59.80;;;;;;5135139;27;8769;-69
2022/03/17 09:44:14;;;;;;;;;72.25;57.00;12.30;59.10;;;;;;5134835;27;8777;-68
2022/03/17 09:46:42;;;;;;;;;72.75;58.25;12.70;57.60;;;;;;5137896;27;8773;-62
2022/03/17 09:49:10;;;;;;;;;75.00;57.50;12.80;56.60;;;;;;5138703;27;8864;-69
2022/03/17 09:51:37;;;;;;;;;77.25;61.50;12.80;57.00;;;;;;5138670;27;8761;-65
2022/03/17 09:54:03;;;;;;;;;75.50;63.75;12.20;58.80;;;;;;5138940;27;8842;-72
2022/03/17 09:56:29;;;;;;;;;74.75;61.00;12.50;57.50;;;;;;5138610;27;9399;-67
2022/03/17 09:58:57;;;;;;;;;69.00;55.00;13.00;56.00;;;;;;5138420;27;8817;-66
2022/03/17 10:01:28;;;;;;;;;76.25;59.00;12.80;55.60;;;;;;5138293;27;8781;-73
2022/03/17 10:04:02;;;;;;;;;74.00;58.00;13.10;55.30;;;;;;5138564;27;8834;-73
2022/03/17 10:06:29;;;;;;;;;69.00;54.50;13.30;54.90;;;;;;5138422;27;8781;-72
2022/03/17 10:08:56;;;;;;;;;67.50;52.25;12.60;57.40;;;;;;5137983;27;8821;-76
2022/03/17 10:11:37;;;;;;;;;66.00;53.75;13.20;55.50;;;;;;5138573;27;8823;-69
2022/03/17 10:14:05;;;;;;;;;68.25;54.00;13.70;53.90;;;;;;5138405;27;8750;-70
2022/03/17 10:16:31;;;;;;;;;67.00;53.00;13.30;54.10;;;;;;5138438;27;8841;-70
2022/03/17 10:19:15;;;;;;;;;64.50;52.25;13.70;52.60;;;;;;5138014;27;8801;-68
2022/03/17 10:21:42;;;;;;;;;64.75;52.25;13.50;52.40;;;;;;5138314;27;8790;-67
2022/03/17 10:24:09;;;;;;;;;65.50;51.25;13.10;55.60;;;;;;5138016;27;8761;-68
2022/03/17 10:26:46;;;;;;;;;64.25;51.50;13.40;53.80;;;;;;5138240;27;8781;-70
2022/03/17 10:29:20;;;;;;;;;70.75;55.25;13.00;55.40;;;;;;5138127;27;9542;-67
2022/03/17 10:31:55;;;;;;;;;67.75;54.25;13.20;55.40;;;;;;5137928;27;8761;-64
2022/03/17 10:34:23;;;;;;;;;67.50;53.50;13.50;53.40;;;;;;5138010;27;8749;-68
2022/03/17 10:36:50;;;;;;;;;69.75;55.00;13.60;52.70;;;;;;5138070;27;9476;-67
2022/03/17 10:39:17;;;;;;;;;65.25;50.50;13.20;54.70;;;;;;5137812;27;8940;-70
2022/03/17 10:41:44;;;;;;;;;68.25;54.50;13.00;54.00;;;;;;5137802;27;8788;-67
2022/03/17 10:44:12;;;;;;;;;79.00;65.25;13.20;53.90;;;;;;5137745;27;8766;-67
2022/03/17 10:46:39;;;;;;;;;70.00;53.50;13.00;55.70;;;;;;5137834;27;8769;-66
2022/03/17 10:49:07;;;;;;;;;68.00;53.25;13.10;54.70;;;;;;5137685;27;8973;-67
2022/03/17 10:51:38;;;;;;;;;61.50;50.25;13.30;54.20;;;;;;5137620;27;8769;-63
2022/03/17 10:54:18;;;;;;;;;66.75;52.50;13.30;54.00;;;;;;5137729;27;8765;-63
2022/03/17 10:57:05;;;;;;;;;65.50;51.00;13.40;54.50;;;;;;5137682;27;8892;-66
2022/03/17 10:59:44;;;;;;;;;61.75;51.75;12.90;55.30;;;;;;5137619;27;8793;-67
2022/03/17 11:02:12;;;;;;;;;69.75;54.00;13.40;56.40;;;;;;5137697;27;8765;-66
2022/03/17 11:04:40;;;;;;;;;67.00;52.50;13.50;53.70;;;;;;5137426;27;8785;-68
2022/03/17 11:07:10;;;;;;;;;60.75;47.25;12.90;55.70;;;;;;5137666;27;8778;-69
2022/03/17 11:09:40;;;;;;;;;64.00;51.25;13.70;53.00;;;;;;5137116;27;8865;-67
2022/03/17 11:12:09;;;;;;;;;69.25;54.00;14.10;52.70;;;;;;5137183;27;8785;-69
2022/03/17 11:14:50;;;;;;;;;60.75;47.00;13.90;53.30;;;;;;5137352;27;8800;-67
2022/03/17 11:17:42;;;;;;;;;65.00;51.00;13.80;52.50;;;;;;5137030;27;8862;-67
2022/03/17 11:20:10;;;;;;;;;67.00;53.00;14.20;51.90;;;;;;5125787;27;8809;-69
2022/03/17 11:22:37;;;;;;;;;65.50;53.00;14.60;49.80;;;;;;5136951;27;8819;-69
2022/03/17 11:25:28;;;;;;;;;66.25;50.75;14.20;50.50;;;;;;5136877;27;8758;-69
2022/03/17 11:27:58;;;;;;;;;63.00;51.25;14.20;50.90;;;;;;5118911;27;8773;-69
2022/03/17 11:30:42;;;;;;;;;65.75;51.75;14.50;50.10;;;;;;5136712;27;8786;-67
2022/03/17 11:33:32;;;;;;;;;58.00;47.50;14.90;49.00;;;;;;5136690;27;8753;-67
2022/03/17 11:36:21;;;;;;;;;67.25;52.25;14.90;48.70;;;;;;5124098;27;8774;-68
2022/03/17 11:39:08;;;;;;;;;68.00;53.75;14.60;48.50;;;;;;5136572;27;8841;-68
2022/03/17 11:41:42;;;;;;;;;72.00;59.25;14.30;49.50;;;;;;5136769;27;8874;-69
2022/03/17 11:44:07;;;;;;;;;63.75;52.25;14.70;49.00;;;;;;5136525;27;8777;-69
2022/03/17 11:46:39;;;;;;;;;63.00;49.25;14.80;48.20;;;;;;5136532;27;8757;-66
2022/03/17 11:49:33;;;;;;;;;66.50;51.25;15.30;46.90;;;;;;5136374;27;8866;-67
2022/03/17 11:52:01;;;;;;;;;61.50;49.25;14.50;49.00;;;;;;5136191;27;8777;-67
2022/03/17 11:54:29;;;;;;;;;61.00;49.00;14.30;50.00;;;;;;5136152;27;8785;-67
2022/03/17 11:56:59;;;;;;;;;61.50;49.75;14.90;47.60;;;;;;5136279;27;8855;-67
2022/03/17 11:59:49;;;;;;;;;61.00;48.00;15.60;46.10;;;;;;5136186;27;8829;-65
2022/03/17 12:02:16;;;;;;;;;56.25;45.00;15.80;44.60;;;;;;5126011;27;8782;-66
2022/03/17 12:04:51;;;;;;;;;59.50;47.25;15.00;45.70;;;;;;5120341;27;9526;-66
2022/03/17 12:07:19;;;;;;;;;55.00;45.00;15.60;45.10;;;;;;5115265;28;8890;-65
2022/03/17 12:09:45;;;;;;;;;54.25;46.00;15.80;44.50;;;;;;5114914;27;8831;-65
2022/03/17 12:12:27;;;;;;;;;59.25;50.00;15.70;44.20;;;;;;5125738;27;8796;-66
2022/03/17 12:14:59;;;;;;;;;61.00;48.50;15.10;45.30;;;;;;5124820;27;8822;-66
2022/03/17 12:17:28;;;;;;;;;62.00;50.50;14.50;46.90;;;;;;5115205;28;8914;-66
2022/03/17 12:20:19;;;;;;;;;62.75;49.00;15.00;46.10;;;;;;5062437;27;8790;-65
2022/03/17 12:22:45;;;;;;;;;66.00;53.75;14.90;46.30;;;;;;5133774;27;8781;-66
2022/03/17 12:25:20;;;;;;;;;70.00;54.00;15.20;46.00;;;;;;5133085;27;8773;-66
2022/03/17 12:28:02;;;;;;;;;69.50;54.50;15.50;45.00;;;;;;5134118;27;8758;-66
2022/03/17 12:30:28;;;;;;;;;69.00;54.50;14.90;46.50;;;;;;5133971;27;9414;-66
2022/03/17 12:33:02;;;;;;;;;69.75;56.25;14.40;48.20;;;;;;5135957;27;8866;-66
2022/03/17 12:35:31;;;;;;;;;68.75;54.25;14.50;48.60;;;;;;5135625;27;8850;-66
2022/03/17 12:38:05;;;;;;;;;69.50;55.75;15.00;46.80;;;;;;5126609;27;8772;-66
2022/03/17 12:40:43;;;;;;;;;61.25;50.50;14.50;47.30;;;;;;5133128;27;8790;-65
2022/03/17 12:43:17;;;;;;;;;68.75;53.00;14.30;48.40;;;;;;5132085;27;8780;-66
2022/03/17 12:45:48;;;;;;;;;69.00;56.50;14.80;47.60;;;;;;5131766;27;8758;-66
2022/03/17 12:48:16;;;;;;;;;71.00;56.75;14.60;47.30;;;;;;5135197;27;8815;-66
2022/03/17 12:50:42;;;;;;;;;75.00;63.00;14.80;47.60;;;;;;5133900;27;8817;-70
2022/03/17 12:53:09;;;;;;;;;72.00;57.00;15.60;46.60;;;;;;5125009;27;8773;-67
2022/03/17 12:55:35;;;;;;;;;72.75;56.75;15.80;44.60;;;;;;5133776;27;8824;-67
2022/03/17 12:58:02;;;;;;;;;74.25;61.25;15.60;45.00;;;;;;5114503;28;8828;-69
2022/03/17 13:00:28;;;;;;;;;72.50;59.50;15.20;45.60;;;;;;5097796;27;9439;-67
2022/03/17 13:02:56;;;;;;;;;72.75;63.00;14.70;47.00;;;;;;5134056;27;8820;-67
2022/03/17 13:08:09;;;;;;;;;72.25;58.00;14.50;48.20;;;;;;5135076;27;8742;-67
2022/03/17 13:16:09;;;;;;;;;78.25;66.25;15.40;46.20;;;;;;5135298;27;8750;-66
2022/03/17 13:18:49;;;;;;;;;87.50;70.75;15.40;45.30;;;;;;5135338;27;8789;-67